Time;durP1;ratioP1;P1;durP2;ratioP2;P2;SDS_P1;SDS_P2;PMS_P1;PMS_P2;Temp;Humidity;BMP_temperature;BMP_pressure;BME280_temperature;BME280_humidity;BME280_pressure;Samples;Min_cycle;Max_cycle;Signal;HPM_P1;HPM_P2
2021/12/15 00:01:19;;;;;;;74.03;17.65;;;;;;;;;;4977099;28;20033;-59
2021/12/15 00:03:49;;;;;;;56.15;18.00;;;;;;;;;;4977770;28;20055;-58
2021/12/15 00:06:18;;;;;;;59.33;17.05;;;;;;;;;;4977846;28;20052;-58
2021/12/15 00:08:45;;;;;;;55.85;16.90;;;;;;;;;;4979998;28;20062;-59
2021/12/15 00:11:11;;;;;;;51.42;16.08;;;;;;;;;;4976789;28;20038;-58
2021/12/15 00:13:42;;;;;;;49.00;17.45;;;;;;;;;;4977764;28;20117;-57
2021/12/15 00:16:09;;;;;;;74.45;17.98;;;;;;;;;;4980101;28;20036;-58
2021/12/15 00:18:41;;;;;;;61.47;18.52;;;;;;;;;;4959705;28;20047;-59
2021/12/15 00:24:43;;;;;;;73.15;17.00;;;;;;;;;;4976595;28;20599;-60
2021/12/15 00:27:12;;;;;;;63.35;18.50;;;;;;;;;;4976953;28;20033;-59
2021/12/15 00:29:37;;;;;;;45.60;17.52;;;;;;;;;;4978000;28;20084;-58
2021/12/15 00:32:06;;;;;;;60.08;17.35;;;;;;;;;;4976010;28;20117;-59
2021/12/15 00:34:35;;;;;;;60.30;17.92;;;;;;;;;;4979008;28;20084;-58
2021/12/15 00:37:03;;;;;;;48.33;17.13;;;;;;;;;;4976089;28;20726;-59
2021/12/15 00:39:32;;;;;;;57.80;17.38;;;;;;;;;;4975780;28;20040;-58
2021/12/15 00:42:00;;;;;;;57.50;18.70;;;;;;;;;;4977940;28;20104;-60
2021/12/15 00:44:26;;;;;;;63.22;16.83;;;;;;;;;;4975380;28;20088;-59
2021/12/15 00:46:58;;;;;;;57.97;19.08;;;;;;;;;;4977718;28;20514;-59
2021/12/15 00:49:26;;;;;;;57.63;16.98;;;;;;;;;;4976002;28;20026;-59
2021/12/15 00:51:52;;;;;;;60.25;17.83;;;;;;;;;;4975167;28;20119;-57
2021/12/15 00:54:22;;;;;;;56.38;16.25;;;;;;;;;;4978684;28;20117;-59
2021/12/15 00:56:50;;;;;;;63.13;17.90;;;;;;;;;;4977559;28;20405;-58
2021/12/15 00:59:21;;;;;;;54.42;16.75;;;;;;;;;;4960720;28;20061;-59
2021/12/15 01:01:53;;;;;;;65.80;17.85;;;;;;;;;;4976735;28;20038;-59
2021/12/15 01:04:20;;;;;;;50.92;17.30;;;;;;;;;;4976847;28;20066;-59
2021/12/15 01:06:51;;;;;;;52.05;16.25;;;;;;;;;;4959929;28;20361;-58
2021/12/15 01:09:21;;;;;;;50.35;14.82;;;;;;;;;;4976500;28;20409;-59
2021/12/15 01:12:07;;;;;;;61.28;17.08;;;;;;;;;;4958831;28;20597;-58
2021/12/15 01:19:58;;;;;;;60.08;15.93;;;;;;;;;;4975379;28;20494;-59
2021/12/15 01:22:32;;;;;;;52.33;16.27;;;;;;;;;;4973077;28;20036;-60
2021/12/15 01:25:00;;;;;;;61.60;16.70;;;;;;;;;;4973888;28;20029;-58
2021/12/15 01:27:26;;;;;;;48.10;16.80;;;;;;;;;;4975291;28;20030;-58
2021/12/15 01:29:52;;;;;;;55.97;16.65;;;;;;;;;;4975767;28;20040;-58
2021/12/15 01:32:18;;;;;;;51.08;15.38;;;;;;;;;;4974217;28;20912;-58
2021/12/15 01:34:50;;;;;;;52.80;16.33;;;;;;;;;;4974331;28;20755;-59
2021/12/15 01:37:17;;;;;;;53.30;15.95;;;;;;;;;;4976691;28;20034;-58
2021/12/15 01:39:42;;;;;;;44.55;17.05;;;;;;;;;;4974025;28;20591;-60
2021/12/15 01:42:10;;;;;;;51.97;17.10;;;;;;;;;;4976990;28;20027;-59
2021/12/15 01:47:22;;;;;;;57.67;18.67;;;;;;;;;;4975873;28;20625;-58
2021/12/15 01:49:51;;;;;;;52.60;18.60;;;;;;;;;;4977564;28;20137;-58
2021/12/15 01:52:24;;;;;;;54.80;17.17;;;;;;;;;;4975659;28;20037;-58
2021/12/15 01:54:52;;;;;;;57.70;17.33;;;;;;;;;;4974780;28;20149;-58
2021/12/15 01:57:29;;;;;;;51.85;18.15;;;;;;;;;;4974936;28;20041;-59
2021/12/15 01:59:58;;;;;;;50.90;18.50;;;;;;;;;;4976721;28;20485;-59
2021/12/15 02:02:25;;;;;;;75.63;18.48;;;;;;;;;;4975699;28;20921;-58
2021/12/15 02:04:53;;;;;;;65.28;18.55;;;;;;;;;;4977551;28;20138;-58
2021/12/15 02:10:59;;;;;;;69.10;19.65;;;;;;;;;;4977979;28;20164;-59
2021/12/15 02:13:27;;;;;;;67.47;19.13;;;;;;;;;;4976970;28;20038;-60
2021/12/15 02:15:57;;;;;;;57.40;19.50;;;;;;;;;;4974336;28;20524;-59
2021/12/15 02:18:27;;;;;;;67.97;19.98;;;;;;;;;;4975978;28;20033;-59
2021/12/15 02:20:55;;;;;;;69.43;18.67;;;;;;;;;;4966950;28;20042;-59
2021/12/15 02:23:32;;;;;;;65.57;20.75;;;;;;;;;;4976067;28;20026;-59
2021/12/15 02:26:02;;;;;;;53.78;19.02;;;;;;;;;;4976337;28;20030;-60
2021/12/15 02:28:32;;;;;;;66.88;19.73;;;;;;;;;;4974250;28;20517;-59
2021/12/15 02:31:31;;;;;;;66.38;18.40;;;;;;;;;;4975208;28;20671;-57
2021/12/15 02:34:21;;;;;;;63.38;18.85;;;;;;;;;;4974529;28;20042;-58
2021/12/15 02:39:40;;;;;;;68.03;19.05;;;;;;;;;;4976152;28;20122;-59
2021/12/15 02:42:10;;;;;;;61.00;19.05;;;;;;;;;;4955967;28;20140;-59
2021/12/15 02:44:43;;;;;;;60.53;19.13;;;;;;;;;;4974554;28;20038;-58
2021/12/15 02:47:10;;;;;;;65.60;19.30;;;;;;;;;;4972528;28;20139;-59
2021/12/15 02:49:38;;;;;;;57.53;18.73;;;;;;;;;;4975232;28;20034;-59
2021/12/15 02:52:04;;;;;;;65.90;19.23;;;;;;;;;;4974826;28;20104;-58
2021/12/15 02:54:29;;;;;;;75.53;20.40;;;;;;;;;;4976337;28;20041;-58
2021/12/15 02:57:04;;;;;;;65.53;20.23;;;;;;;;;;4976813;28;20044;-59
2021/12/15 03:00:21;;;;;;;54.65;20.35;;;;;;;;;;4954393;28;20964;-59
2021/12/15 03:05:40;;;;;;;74.05;19.25;;;;;;;;;;4942712;28;20038;-59
2021/12/15 03:08:14;;;;;;;70.75;20.40;;;;;;;;;;4946102;28;20068;-59
2021/12/15 03:16:30;;;;;;;58.45;18.73;;;;;;;;;;4945569;28;20188;-59
2021/12/15 03:18:58;;;;;;;68.70;20.27;;;;;;;;;;4953066;28;20697;-60
2021/12/15 03:21:27;;;;;;;64.10;19.50;;;;;;;;;;4943722;28;20413;-58
2021/12/15 03:24:02;;;;;;;65.03;18.83;;;;;;;;;;4948844;28;20121;-58
2021/12/15 03:26:35;;;;;;;63.78;20.60;;;;;;;;;;4947373;28;20039;-58
2021/12/15 03:34:49;;;;;;;65.20;20.15;;;;;;;;;;4974959;28;20034;-58
2021/12/15 03:37:26;;;;;;;69.95;22.02;;;;;;;;;;4976799;28;20038;-58
2021/12/15 03:40:06;;;;;;;79.20;21.60;;;;;;;;;;4978192;28;20425;-58
2021/12/15 03:42:41;;;;;;;64.28;20.60;;;;;;;;;;4973576;28;20099;-59
2021/12/15 03:45:12;;;;;;;78.03;24.63;;;;;;;;;;4984784;28;20164;-59
2021/12/15 03:47:40;;;;;;;84.75;22.23;;;;;;;;;;4976851;28;20060;-59
2021/12/15 03:50:09;;;;;;;62.53;20.92;;;;;;;;;;4978103;28;20564;-59
2021/12/15 03:52:35;;;;;;;67.00;20.95;;;;;;;;;;4975584;28;20042;-59
2021/12/15 03:55:04;;;;;;;72.60;21.00;;;;;;;;;;4976671;28;20038;-59
2021/12/15 03:57:34;;;;;;;77.95;23.25;;;;;;;;;;4976245;28;20031;-58
2021/12/15 04:00:00;;;;;;;73.90;21.65;;;;;;;;;;4977824;28;21060;-58
2021/12/15 04:02:28;;;;;;;72.00;21.95;;;;;;;;;;4983013;28;20050;-59
2021/12/15 04:05:01;;;;;;;66.57;21.70;;;;;;;;;;4979054;28;20038;-59
2021/12/15 04:07:29;;;;;;;74.85;22.00;;;;;;;;;;4978975;28;20485;-58
2021/12/15 04:09:55;;;;;;;71.07;21.80;;;;;;;;;;4979289;28;20045;-60
2021/12/15 04:12:22;;;;;;;73.63;22.30;;;;;;;;;;4976288;28;20170;-59
2021/12/15 04:15:07;;;;;;;72.72;22.67;;;;;;;;;;4976696;28;20030;-59
2021/12/15 04:17:36;;;;;;;61.88;20.23;;;;;;;;;;4983410;28;20030;-58
2021/12/15 04:20:07;;;;;;;74.45;20.20;;;;;;;;;;4978399;28;20037;-58
2021/12/15 04:22:35;;;;;;;62.08;20.27;;;;;;;;;;4978948;28;20500;-61
2021/12/15 04:25:17;;;;;;;57.42;19.63;;;;;;;;;;4983721;28;20026;-60
2021/12/15 04:28:02;;;;;;;72.05;19.77;;;;;;;;;;4977897;28;20285;-59
2021/12/15 04:30:43;;;;;;;64.53;18.77;;;;;;;;;;4979178;28;20026;-59
2021/12/15 04:33:23;;;;;;;69.45;20.25;;;;;;;;;;4975837;28;20755;-59
2021/12/15 04:35:53;;;;;;;75.05;21.35;;;;;;;;;;4991210;28;20050;-59
2021/12/15 04:38:24;;;;;;;70.93;20.52;;;;;;;;;;4977397;28;20062;-59
2021/12/15 04:40:54;;;;;;;60.83;19.15;;;;;;;;;;4977350;28;20042;-59
2021/12/15 04:43:22;;;;;;;64.13;18.77;;;;;;;;;;4982388;28;20258;-60
2021/12/15 04:45:47;;;;;;;61.45;19.00;;;;;;;;;;4975747;28;22052;-60
2021/12/15 04:48:16;;;;;;;64.13;19.38;;;;;;;;;;4978419;28;20034;-58
2021/12/15 04:50:44;;;;;;;68.90;18.40;;;;;;;;;;4982260;28;21704;-58
2021/12/15 04:53:14;;;;;;;60.78;19.13;;;;;;;;;;4979013;28;20042;-60
2021/12/15 04:55:42;;;;;;;66.20;18.63;;;;;;;;;;4977623;28;20041;-59
2021/12/15 04:58:09;;;;;;;64.15;18.08;;;;;;;;;;4975196;28;20026;-59
2021/12/15 05:00:37;;;;;;;70.20;19.55;;;;;;;;;;4974800;28;20121;-59
2021/12/15 05:03:04;;;;;;;68.28;18.58;;;;;;;;;;4976085;28;20031;-59
2021/12/15 05:05:30;;;;;;;75.32;21.02;;;;;;;;;;4964259;28;20853;-59
2021/12/15 05:07:58;;;;;;;58.13;19.00;;;;;;;;;;4976879;28;20030;-60
2021/12/15 05:10:27;;;;;;;68.03;21.13;;;;;;;;;;4975710;28;20045;-59
2021/12/15 05:12:55;;;;;;;72.43;20.75;;;;;;;;;;4977655;28;20070;-60
2021/12/15 05:15:20;;;;;;;75.85;21.17;;;;;;;;;;4967947;28;20124;-59
2021/12/15 05:17:46;;;;;;;65.35;19.60;;;;;;;;;;4977698;28;20033;-59
2021/12/15 05:20:11;;;;;;;80.53;21.50;;;;;;;;;;4977255;28;20092;-58
2021/12/15 05:22:42;;;;;;;68.68;20.08;;;;;;;;;;4974289;28;20540;-58
2021/12/15 05:25:10;;;;;;;72.80;22.08;;;;;;;;;;4975964;28;21134;-59
2021/12/15 05:27:37;;;;;;;76.88;19.48;;;;;;;;;;4983471;28;20066;-60
2021/12/15 05:30:06;;;;;;;72.38;21.15;;;;;;;;;;4974412;28;20053;-58
2021/12/15 05:32:32;;;;;;;71.38;20.55;;;;;;;;;;4975942;28;20053;-59
2021/12/15 05:35:00;;;;;;;76.30;21.02;;;;;;;;;;4961866;28;20029;-59
2021/12/15 05:37:26;;;;;;;74.05;21.70;;;;;;;;;;4978587;28;20026;-59
2021/12/15 05:39:54;;;;;;;71.43;20.98;;;;;;;;;;4976440;28;20030;-58
2021/12/15 05:42:21;;;;;;;64.78;20.27;;;;;;;;;;4975621;28;20022;-59
2021/12/15 05:44:52;;;;;;;78.85;21.80;;;;;;;;;;4976818;28;20030;-59
2021/12/15 05:47:23;;;;;;;59.35;18.45;;;;;;;;;;4973878;28;20148;-59
2021/12/15 05:49:51;;;;;;;72.20;21.02;;;;;;;;;;4981829;28;20018;-59
2021/12/15 05:52:17;;;;;;;79.72;21.42;;;;;;;;;;4975384;28;20034;-58
2021/12/15 05:54:44;;;;;;;75.40;19.88;;;;;;;;;;4974873;28;20054;-60
2021/12/15 05:57:12;;;;;;;60.55;19.35;;;;;;;;;;4992079;28;20042;-60
2021/12/15 05:59:40;;;;;;;83.07;21.20;;;;;;;;;;4976842;28;20113;-59
2021/12/15 06:02:07;;;;;;;69.32;19.23;;;;;;;;;;4976137;28;20040;-58
2021/12/15 06:04:37;;;;;;;65.70;21.88;;;;;;;;;;4976493;28;20042;-58
2021/12/15 06:07:03;;;;;;;75.35;21.08;;;;;;;;;;4979735;28;20117;-59
2021/12/15 06:13:08;;;;;;;67.95;19.55;;;;;;;;;;4975695;28;20080;-59
2021/12/15 06:15:37;;;;;;;93.53;21.30;;;;;;;;;;4976057;28;20041;-58
2021/12/15 06:18:07;;;;;;;75.22;22.65;;;;;;;;;;4973202;28;20038;-58
2021/12/15 06:20:35;;;;;;;66.15;21.30;;;;;;;;;;4989775;28;21768;-59
2021/12/15 06:23:11;;;;;;;66.50;19.60;;;;;;;;;;4973609;28;20042;-59
2021/12/15 06:25:37;;;;;;;70.03;20.58;;;;;;;;;;4990102;28;20064;-58
2021/12/15 06:28:08;;;;;;;68.63;19.75;;;;;;;;;;4974162;28;20132;-60
2021/12/15 06:30:40;;;;;;;70.45;21.98;;;;;;;;;;4974428;28;20026;-59
2021/12/15 06:33:06;;;;;;;71.18;20.10;;;;;;;;;;4973402;28;20073;-61
2021/12/15 06:35:32;;;;;;;70.18;23.42;;;;;;;;;;4973213;28;20141;-59
2021/12/15 06:38:06;;;;;;;55.95;20.20;;;;;;;;;;4974127;28;20025;-60
2021/12/15 06:40:32;;;;;;;56.35;18.13;;;;;;;;;;4966960;28;20065;-59
2021/12/15 06:43:00;;;;;;;67.93;19.40;;;;;;;;;;4980087;28;20037;-59
2021/12/15 06:45:36;;;;;;;71.65;21.80;;;;;;;;;;4978945;28;20034;-60
2021/12/15 06:58:53;;;;;;;67.85;18.83;;;;;;;;;;4975946;28;20038;-59
2021/12/15 07:01:21;;;;;;;63.67;18.83;;;;;;;;;;4978634;28;20116;-59
2021/12/15 07:03:51;;;;;;;61.65;19.27;;;;;;;;;;4990899;28;20174;-59
2021/12/15 07:06:19;;;;;;;60.42;17.63;;;;;;;;;;4978282;28;20766;-59
2021/12/15 07:08:49;;;;;;;70.10;20.08;;;;;;;;;;4980796;28;20031;-58
2021/12/15 07:11:20;;;;;;;64.90;19.92;;;;;;;;;;4977745;28;20035;-58
2021/12/15 07:13:48;;;;;;;67.85;19.60;;;;;;;;;;4979288;28;20038;-59
2021/12/15 07:16:18;;;;;;;66.25;19.65;;;;;;;;;;4979226;28;20037;-60
2021/12/15 07:19:07;;;;;;;59.85;18.27;;;;;;;;;;4980372;28;20042;-60
2021/12/15 07:21:38;;;;;;;61.88;17.25;;;;;;;;;;4979054;28;20030;-60
2021/12/15 07:24:06;;;;;;;49.47;17.88;;;;;;;;;;4997308;28;20046;-59
2021/12/15 07:26:34;;;;;;;61.45;18.48;;;;;;;;;;4996613;28;20038;-59
2021/12/15 07:29:04;;;;;;;52.13;15.85;;;;;;;;;;4980968;28;20396;-60
2021/12/15 07:31:32;;;;;;;62.75;18.00;;;;;;;;;;4978076;28;20421;-59
2021/12/15 07:34:00;;;;;;;53.63;17.38;;;;;;;;;;4979120;28;20792;-59
2021/12/15 07:36:26;;;;;;;57.15;16.83;;;;;;;;;;4977745;28;20037;-59
2021/12/15 07:38:58;;;;;;;53.75;16.33;;;;;;;;;;4976282;28;20121;-59
2021/12/15 07:41:36;;;;;;;54.33;16.85;;;;;;;;;;4978737;28;20042;-59
2021/12/15 07:44:04;;;;;;;56.33;17.13;;;;;;;;;;4993545;28;20038;-59
2021/12/15 07:46:34;;;;;;;58.80;17.88;;;;;;;;;;4950147;28;20141;-59
2021/12/15 07:48:59;;;;;;;51.78;16.75;;;;;;;;;;4984854;28;20053;-59
2021/12/15 07:51:30;;;;;;;54.15;16.30;;;;;;;;;;4965710;28;20030;-59
2021/12/15 07:54:00;;;;;;;54.17;16.55;;;;;;;;;;4980267;28;20081;-60
2021/12/15 07:56:31;;;;;;;58.00;15.45;;;;;;;;;;4979983;28;20037;-58
2021/12/15 07:58:59;;;;;;;58.50;16.73;;;;;;;;;;4980370;28;20045;-59
2021/12/15 08:01:27;;;;;;;56.97;16.10;;;;;;;;;;4982592;28;20078;-59
2021/12/15 08:03:55;;;;;;;47.33;14.45;;;;;;;;;;4979485;28;20081;-60
2021/12/15 08:06:24;;;;;;;39.75;13.38;;;;;;;;;;4976737;28;20030;-59
2021/12/15 08:08:50;;;;;;;43.20;14.77;;;;;;;;;;4978555;28;20026;-60
2021/12/15 08:11:16;;;;;;;44.65;14.15;;;;;;;;;;4964492;28;20080;-58
2021/12/15 08:13:41;;;;;;;42.63;13.45;;;;;;;;;;4976223;28;20249;-59
2021/12/15 08:16:06;;;;;;;47.47;14.85;;;;;;;;;;4965104;28;20100;-60
2021/12/15 08:18:34;;;;;;;42.03;12.95;;;;;;;;;;4975357;28;20958;-58
2021/12/15 08:21:04;;;;;;;33.65;11.77;;;;;;;;;;4978681;28;20033;-59
2021/12/15 08:23:32;;;;;;;39.65;12.75;;;;;;;;;;4978554;28;20049;-60
2021/12/15 08:25:58;;;;;;;42.30;11.65;;;;;;;;;;4975964;28;20042;-59
2021/12/15 08:28:28;;;;;;;32.05;10.57;;;;;;;;;;4985048;28;20030;-59
2021/12/15 08:30:56;;;;;;;34.80;11.63;;;;;;;;;;4954803;28;20038;-59
2021/12/15 08:33:26;;;;;;;41.95;12.13;;;;;;;;;;4980108;28;20041;-59
2021/12/15 08:35:56;;;;;;;31.98;10.65;;;;;;;;;;4979882;28;20060;-59
2021/12/15 08:38:24;;;;;;;38.22;11.13;;;;;;;;;;4978214;28;20033;-59
2021/12/15 08:40:53;;;;;;;38.03;10.20;;;;;;;;;;4977959;28;20030;-59
2021/12/15 08:43:19;;;;;;;37.55;11.18;;;;;;;;;;4991324;28;20037;-59
2021/12/15 08:45:53;;;;;;;31.27;10.23;;;;;;;;;;4992134;28;20034;-59
2021/12/15 08:48:23;;;;;;;28.23;10.95;;;;;;;;;;4976108;28;20425;-60
2021/12/15 08:50:51;;;;;;;35.50;10.93;;;;;;;;;;4983866;28;20046;-60
2021/12/15 08:53:24;;;;;;;28.15;10.35;;;;;;;;;;4977309;28;20038;-60
2021/12/15 08:55:50;;;;;;;38.97;11.40;;;;;;;;;;4977032;28;20202;-60
2021/12/15 08:58:20;;;;;;;44.47;11.43;;;;;;;;;;4974401;28;20072;-60
2021/12/15 09:00:50;;;;;;;30.30;10.05;;;;;;;;;;4980409;28;20046;-61
2021/12/15 09:03:16;;;;;;;35.22;10.63;;;;;;;;;;4960000;28;20068;-61
2021/12/15 09:05:44;;;;;;;34.30;9.88;;;;;;;;;;4971770;28;20149;-59
2021/12/15 09:08:13;;;;;;;41.00;11.25;;;;;;;;;;4976639;28;20038;-60
2021/12/15 09:10:40;;;;;;;33.35;9.95;;;;;;;;;;4982513;28;20030;-58
2021/12/15 09:13:08;;;;;;;23.13;8.55;;;;;;;;;;4976236;28;20950;-59
2021/12/15 09:15:38;;;;;;;25.50;8.07;;;;;;;;;;4977147;28;20049;-60
2021/12/15 09:18:06;;;;;;;25.90;9.93;;;;;;;;;;4977428;28;20511;-59
2021/12/15 09:20:32;;;;;;;25.90;9.93;;;;;;;;;;4975419;28;20034;-60
2021/12/15 09:23:02;;;;;;;24.38;8.90;;;;;;;;;;4977065;28;20117;-59
2021/12/15 09:25:32;;;;;;;23.58;9.82;;;;;;;;;;4977425;28;20049;-60
2021/12/15 09:27:58;;;;;;;23.92;10.27;;;;;;;;;;4976583;28;20466;-59
2021/12/15 09:30:29;;;;;;;39.22;10.55;;;;;;;;;;4978881;28;20106;-60
2021/12/15 09:33:00;;;;;;;19.30;8.32;;;;;;;;;;4977863;28;20034;-60
2021/12/15 09:35:30;;;;;;;27.77;8.95;;;;;;;;;;4974997;28;20029;-60
2021/12/15 09:37:55;;;;;;;29.67;9.75;;;;;;;;;;4976918;28;20034;-60
2021/12/15 09:40:21;;;;;;;24.60;9.40;;;;;;;;;;4973065;28;20034;-60
2021/12/15 09:42:52;;;;;;;36.15;9.10;;;;;;;;;;4976369;28;20029;-58
2021/12/15 09:45:30;;;;;;;41.90;9.05;;;;;;;;;;4991078;28;20089;-59
2021/12/15 10:04:28;;;;;;;24.42;8.98;;;;;;;;;;4970037;28;20037;-60
2021/12/15 10:07:20;;;;;;;18.67;7.53;;;;;;;;;;4971189;28;20034;-59
2021/12/15 10:17:53;;;;;;;18.92;7.60;;;;;;;;;;4966383;28;20057;-60
2021/12/15 10:20:20;;;;;;;22.95;7.88;;;;;;;;;;4969063;28;20029;-60
2021/12/15 10:22:53;;;;;;;27.00;8.10;;;;;;;;;;4971128;28;21947;-59
2021/12/15 10:25:25;;;;;;;22.00;8.05;;;;;;;;;;4970636;28;20093;-58
2021/12/15 10:27:50;;;;;;;24.40;7.80;;;;;;;;;;4968106;28;20026;-59
2021/12/15 10:30:19;;;;;;;24.33;7.47;;;;;;;;;;4972132;28;20104;-61
2021/12/15 10:32:45;;;;;;;18.27;6.55;;;;;;;;;;4970208;28;20041;-60
2021/12/15 10:35:18;;;;;;;26.73;8.18;;;;;;;;;;4969521;28;20040;-60
2021/12/15 10:38:07;;;;;;;16.85;7.30;;;;;;;;;;4977059;28;20145;-60
2021/12/15 10:40:40;;;;;;;16.45;7.40;;;;;;;;;;4968661;28;20048;-60
2021/12/15 10:43:08;;;;;;;20.42;7.00;;;;;;;;;;4964661;28;20486;-60
2021/12/15 10:45:37;;;;;;;21.10;6.97;;;;;;;;;;4966751;28;20110;-60
2021/12/15 10:48:09;;;;;;;20.48;7.80;;;;;;;;;;4972191;28;20054;-59
2021/12/15 10:50:38;;;;;;;18.55;7.68;;;;;;;;;;4967036;28;20042;-59
2021/12/15 10:53:06;;;;;;;17.27;6.95;;;;;;;;;;4968242;28;20118;-59
2021/12/15 10:55:38;;;;;;;23.85;6.75;;;;;;;;;;4972933;28;20947;-60
2021/12/15 10:58:29;;;;;;;27.38;6.95;;;;;;;;;;4973482;28;20034;-60
2021/12/15 11:00:57;;;;;;;16.58;6.47;;;;;;;;;;4963664;28;20066;-59
2021/12/15 11:03:33;;;;;;;17.02;6.63;;;;;;;;;;4966572;28;20218;-60
2021/12/15 11:05:58;;;;;;;16.67;6.65;;;;;;;;;;4977589;28;20052;-61
2021/12/15 11:08:24;;;;;;;17.13;5.97;;;;;;;;;;4974525;28;20034;-60
2021/12/15 11:10:54;;;;;;;16.50;5.90;;;;;;;;;;4970008;28;20030;-60
2021/12/15 11:13:22;;;;;;;20.33;5.63;;;;;;;;;;4967846;28;22114;-59
2021/12/15 11:15:49;;;;;;;13.63;5.78;;;;;;;;;;4965925;28;20038;-60
2021/12/15 11:18:16;;;;;;;19.92;6.82;;;;;;;;;;4968271;28;20041;-60
2021/12/15 11:20:48;;;;;;;14.52;5.68;;;;;;;;;;4980235;28;20041;-60
2021/12/15 11:23:26;;;;;;;14.25;5.75;;;;;;;;;;4966093;28;20248;-59
2021/12/15 11:25:53;;;;;;;12.23;5.25;;;;;;;;;;4975513;28;20125;-60
2021/12/15 11:28:22;;;;;;;12.75;4.95;;;;;;;;;;4978679;28;20027;-59
2021/12/15 11:30:51;;;;;;;14.32;5.38;;;;;;;;;;4980580;28;20030;-59
2021/12/15 11:33:20;;;;;;;13.88;5.40;;;;;;;;;;4978155;28;20069;-60
2021/12/15 11:35:54;;;;;;;20.75;5.07;;;;;;;;;;4976670;28;20034;-59
2021/12/15 11:38:39;;;;;;;16.20;4.25;;;;;;;;;;4967077;28;20474;-59
2021/12/15 11:41:21;;;;;;;14.63;5.13;;;;;;;;;;4975706;28;20060;-61
2021/12/15 11:43:49;;;;;;;20.70;5.30;;;;;;;;;;4984261;28;20113;-60
2021/12/15 11:46:18;;;;;;;22.33;4.72;;;;;;;;;;4994126;28;20977;-60
2021/12/15 11:48:49;;;;;;;8.80;4.25;;;;;;;;;;4976118;28;20108;-59
2021/12/15 11:51:14;;;;;;;10.82;4.07;;;;;;;;;;4975167;28;20065;-59
2021/12/15 11:53:46;;;;;;;11.55;3.30;;;;;;;;;;4978022;28;20046;-59
2021/12/15 11:56:11;;;;;;;8.70;3.33;;;;;;;;;;4976643;28;20041;-60
2021/12/15 11:58:41;;;;;;;18.92;3.63;;;;;;;;;;4976095;28;20243;-61
2021/12/15 12:01:09;;;;;;;18.33;4.10;;;;;;;;;;4981969;28;20140;-59
2021/12/15 12:03:35;;;;;;;9.80;2.83;;;;;;;;;;4977479;28;20040;-60
2021/12/15 12:06:03;;;;;;;8.75;2.65;;;;;;;;;;4975482;28;20444;-61
2021/12/15 12:08:29;;;;;;;8.32;2.83;;;;;;;;;;4964110;28;20062;-61
2021/12/15 12:10:56;;;;;;;11.25;3.35;;;;;;;;;;4977153;28;20705;-60
2021/12/15 12:13:26;;;;;;;10.10;2.72;;;;;;;;;;4976525;28;20164;-60
2021/12/15 12:15:56;;;;;;;10.32;3.08;;;;;;;;;;4978115;28;20058;-60
2021/12/15 12:18:24;;;;;;;7.55;2.53;;;;;;;;;;4974497;28;20041;-60
2021/12/15 12:20:56;;;;;;;7.93;2.53;;;;;;;;;;4975853;28;20038;-59
2021/12/15 12:23:23;;;;;;;9.52;2.63;;;;;;;;;;4974630;28;20034;-60
2021/12/15 12:25:50;;;;;;;7.53;2.05;;;;;;;;;;4973999;28;20034;-60
2021/12/15 12:28:18;;;;;;;7.70;2.13;;;;;;;;;;4974753;28;20057;-59
2021/12/15 12:30:48;;;;;;;7.05;2.65;;;;;;;;;;4977651;28;20034;-59
2021/12/15 12:33:15;;;;;;;10.50;2.55;;;;;;;;;;4976238;28;20222;-60
2021/12/15 12:35:43;;;;;;;8.98;2.10;;;;;;;;;;4975302;28;20030;-59
2021/12/15 12:38:13;;;;;;;5.78;2.13;;;;;;;;;;4975099;28;20564;-58
2021/12/15 12:40:48;;;;;;;7.70;2.08;;;;;;;;;;4977971;28;20042;-59
2021/12/15 12:43:20;;;;;;;6.10;1.70;;;;;;;;;;4990049;28;20038;-59
2021/12/15 12:45:52;;;;;;;4.78;2.03;;;;;;;;;;4964417;28;20062;-59
2021/12/15 12:48:43;;;;;;;3.13;1.85;;;;;;;;;;4982187;28;20050;-59
2021/12/15 12:59:38;;;;;;;2.35;1.08;;;;;;;;;;4976209;28;20045;-61
2021/12/15 13:02:10;;;;;;;4.57;1.70;;;;;;;;;;4977084;28;20096;-60
2021/12/15 13:04:51;;;;;;;4.22;1.15;;;;;;;;;;4976900;28;20045;-59
2021/12/15 13:07:36;;;;;;;5.85;1.50;;;;;;;;;;4976132;28;20383;-61
2021/12/15 13:10:04;;;;;;;3.72;1.70;;;;;;;;;;4964430;28;20042;-60
2021/12/15 13:12:37;;;;;;;3.65;1.30;;;;;;;;;;4976802;28;20177;-62
2021/12/15 13:15:08;;;;;;;5.07;1.30;;;;;;;;;;4975627;28;20489;-59
2021/12/15 13:17:37;;;;;;;4.05;1.75;;;;;;;;;;4975311;28;20185;-60
2021/12/15 13:20:21;;;;;;;3.67;1.52;;;;;;;;;;4976823;28;20218;-60
2021/12/15 13:23:05;;;;;;;4.10;1.45;;;;;;;;;;4982637;28;20033;-60
2021/12/15 13:31:08;;;;;;;6.07;1.48;;;;;;;;;;4975118;28;20577;-61
2021/12/15 13:33:34;;;;;;;2.45;1.25;;;;;;;;;;4976222;28;20069;-60
2021/12/15 13:36:03;;;;;;;7.18;1.73;;;;;;;;;;4976025;28;20547;-59
2021/12/15 13:38:32;;;;;;;10.25;1.67;;;;;;;;;;4991979;28;20061;-61
2021/12/15 13:41:21;;;;;;;2.15;1.05;;;;;;;;;;4974832;28;20110;-60
2021/12/15 13:47:24;;;;;;;5.15;2.10;;;;;;;;;;4974993;28;20052;-60
2021/12/15 13:50:01;;;;;;;2.90;1.15;;;;;;;;;;4974183;28;20029;-60
2021/12/15 13:52:30;;;;;;;8.48;1.80;;;;;;;;;;4976563;28;20025;-60
2021/12/15 13:54:57;;;;;;;2.22;1.35;;;;;;;;;;4989424;28;20046;-61
2021/12/15 13:57:25;;;;;;;6.22;1.38;;;;;;;;;;4975735;28;20064;-59
2021/12/15 13:59:50;;;;;;;4.53;1.40;;;;;;;;;;4972374;28;20042;-59
2021/12/15 14:02:19;;;;;;;4.43;1.45;;;;;;;;;;4975503;28;20037;-59
2021/12/15 14:04:47;;;;;;;4.25;1.33;;;;;;;;;;4989731;28;20053;-60
2021/12/15 14:07:28;;;;;;;3.50;1.15;;;;;;;;;;4987537;28;20030;-60
2021/12/15 14:10:01;;;;;;;8.98;1.60;;;;;;;;;;4990968;28;20038;-60
2021/12/15 14:12:45;;;;;;;6.18;1.50;;;;;;;;;;4974259;28;20046;-59
2021/12/15 14:15:34;;;;;;;6.90;1.48;;;;;;;;;;4972025;28;20042;-60
2021/12/15 14:18:01;;;;;;;4.60;1.10;;;;;;;;;;4975135;28;20044;-60
2021/12/15 14:20:28;;;;;;;5.55;1.23;;;;;;;;;;4973284;28;20774;-60
2021/12/15 14:22:57;;;;;;;3.03;1.45;;;;;;;;;;4976197;28;20116;-62
2021/12/15 14:25:25;;;;;;;8.35;1.63;;;;;;;;;;4975636;28;20061;-61
2021/12/15 14:27:52;;;;;;;5.80;1.75;;;;;;;;;;4973702;28;20026;-59
2021/12/15 14:30:18;;;;;;;5.22;1.60;;;;;;;;;;4972553;28;20034;-60
2021/12/15 14:32:44;;;;;;;3.47;1.50;;;;;;;;;;4973960;28;20145;-59
2021/12/15 14:35:19;;;;;;;9.57;1.30;;;;;;;;;;4973598;28;20030;-59
2021/12/15 14:37:48;;;;;;;6.20;1.33;;;;;;;;;;4974545;28;20042;-62
2021/12/15 14:40:16;;;;;;;3.67;1.55;;;;;;;;;;4974237;28;20030;-59
2021/12/15 14:42:47;;;;;;;8.65;1.83;;;;;;;;;;4974032;28;20033;-59
2021/12/15 14:45:16;;;;;;;6.45;1.63;;;;;;;;;;4971938;28;20031;-59
2021/12/15 14:47:44;;;;;;;7.75;1.40;;;;;;;;;;4964399;28;20038;-60
2021/12/15 14:50:14;;;;;;;2.35;1.30;;;;;;;;;;4971034;28;20442;-60
2021/12/15 14:52:41;;;;;;;6.10;1.80;;;;;;;;;;4972451;28;20030;-60
2021/12/15 14:55:09;;;;;;;5.13;1.58;;;;;;;;;;4973304;28;20547;-60
2021/12/15 14:57:37;;;;;;;1.70;1.02;;;;;;;;;;4972202;28;20947;-61
2021/12/15 15:00:10;;;;;;;7.75;1.60;;;;;;;;;;4976353;28;20073;-61
2021/12/15 15:02:43;;;;;;;5.28;1.48;;;;;;;;;;4975899;28;20672;-59
2021/12/15 15:05:14;;;;;;;6.82;1.50;;;;;;;;;;4982660;28;20041;-60
2021/12/15 15:07:43;;;;;;;3.08;1.42;;;;;;;;;;4974405;28;20125;-60
2021/12/15 15:10:11;;;;;;;11.10;1.80;;;;;;;;;;4979568;28;20033;-60
2021/12/15 15:12:40;;;;;;;7.78;1.85;;;;;;;;;;4980103;28;20409;-60
2021/12/15 15:15:07;;;;;;;1.55;1.20;;;;;;;;;;4979553;28;20474;-60
2021/12/15 15:18:01;;;;;;;3.50;1.15;;;;;;;;;;4972632;28;20045;-59
2021/12/15 15:20:30;;;;;;;2.85;1.10;;;;;;;;;;4984875;28;20042;-60
2021/12/15 15:23:00;;;;;;;3.10;1.30;;;;;;;;;;4975889;28;20042;-60
2021/12/15 15:25:27;;;;;;;4.38;1.33;;;;;;;;;;4976911;28;20103;-59
2021/12/15 15:27:55;;;;;;;11.13;1.50;;;;;;;;;;4976624;28;20030;-60
2021/12/15 15:30:23;;;;;;;2.22;1.13;;;;;;;;;;4978993;28;20656;-61
2021/12/15 15:32:53;;;;;;;9.48;1.80;;;;;;;;;;4965017;28;20633;-60
2021/12/15 15:35:30;;;;;;;1.42;1.30;;;;;;;;;;4968712;28;20034;-60
2021/12/15 15:37:57;;;;;;;9.23;1.58;;;;;;;;;;4984695;28;20065;-61
2021/12/15 15:40:29;;;;;;;7.13;1.50;;;;;;;;;;4980516;28;20036;-59
2021/12/15 15:43:04;;;;;;;3.88;1.23;;;;;;;;;;4980248;28;20281;-60
2021/12/15 15:45:44;;;;;;;7.15;1.48;;;;;;;;;;4974805;28;20383;-60
2021/12/15 15:48:11;;;;;;;7.78;1.40;;;;;;;;;;4989772;28;20450;-59
2021/12/15 15:50:38;;;;;;;4.20;1.55;;;;;;;;;;4977061;28;20033;-60
2021/12/15 15:53:07;;;;;;;3.10;1.27;;;;;;;;;;4975455;28;20041;-60
2021/12/15 15:55:32;;;;;;;7.57;1.38;;;;;;;;;;4973542;28;20048;-61
2021/12/15 15:58:00;;;;;;;4.95;1.38;;;;;;;;;;4961313;28;20355;-61
2021/12/15 16:00:27;;;;;;;3.38;1.05;;;;;;;;;;4976986;28;20034;-61
2021/12/15 16:02:55;;;;;;;2.53;1.27;;;;;;;;;;4977138;28;20161;-58
2021/12/15 16:05:21;;;;;;;8.18;1.30;;;;;;;;;;4975327;28;20121;-61
2021/12/15 16:07:52;;;;;;;6.82;1.48;;;;;;;;;;4965309;28;20030;-60
2021/12/15 16:10:23;;;;;;;1.98;1.30;;;;;;;;;;4979253;28;20030;-60
2021/12/15 16:12:51;;;;;;;5.05;1.13;;;;;;;;;;4976795;28;20034;-60